createdAt,value
2017-08-16T00:00:03.980Z,798.95
2017-08-16T00:00:08.436Z,798.97
2017-08-16T00:00:12.906Z,798.89
2017-08-16T00:00:17.127Z,798.88
2017-08-16T00:00:21.484Z,798.88
2017-08-16T00:00:25.700Z,798.92
2017-08-16T00:00:30.061Z,798.89
2017-08-16T00:00:34.541Z,798.87
2017-08-16T00:00:38.987Z,798.87
2017-08-16T00:00:43.230Z,798.87
2017-08-16T00:00:47.694Z,798.84
2017-08-16T00:00:52.180Z,798.85
2017-08-16T00:00:56.528Z,798.82
2017-08-16T00:01:00.761Z,798.81
2017-08-16T00:01:05.240Z,798.81
2017-08-16T00:01:09.345Z,798.82
2017-08-16T00:01:13.703Z,798.84
2017-08-16T00:01:18.040Z,798.8
2017-08-16T00:01:22.500Z,798.77
2017-08-16T00:01:26.974Z,798.77
2017-08-16T00:01:31.209Z,798.77
2017-08-16T00:01:35.558Z,798.75
2017-08-16T00:01:39.907Z,798.72
2017-08-16T00:01:44.261Z,798.68
2017-08-16T00:01:48.719Z,798.75
2017-08-16T00:01:53.076Z,798.76
2017-08-16T00:01:57.537Z,798.73
2017-08-16T00:02:01.994Z,798.74
2017-08-16T00:02:06.120Z,798.75
2017-08-16T00:02:10.353Z,798.72
2017-08-16T00:02:14.817Z,798.74
2017-08-16T00:02:19.162Z,798.72
2017-08-16T00:02:23.515Z,798.69
2017-08-16T00:02:27.993Z,798.67
2017-08-16T00:02:32.223Z,798.7
2017-08-16T00:02:36.567Z,798.67
2017-08-16T00:02:40.929Z,798.64
2017-08-16T00:02:45.177Z,798.65
2017-08-16T00:02:49.646Z,798.64
2017-08-16T00:02:53.989Z,798.64
2017-08-16T00:02:58.095Z,798.67
2017-08-16T00:03:02.582Z,798.62
2017-08-16T00:03:06.926Z,798.61
2017-08-16T00:03:11.275Z,798.61
2017-08-16T00:03:15.619Z,798.59
2017-08-16T00:03:19.967Z,798.57
2017-08-16T00:03:24.305Z,798.58
2017-08-16T00:03:28.661Z,798.58
2017-08-16T00:03:33.128Z,798.56
2017-08-16T00:03:37.497Z,798.57
2017-08-16T00:03:41.825Z,798.54
2017-08-16T00:03:46.176Z,798.54
2017-08-16T00:03:50.539Z,798.54
2017-08-16T00:03:55.045Z,798.54
2017-08-16T00:03:59.276Z,798.49
2017-08-16T00:04:04.033Z,798.5
2017-08-16T00:04:08.259Z,798.45
2017-08-16T00:04:12.622Z,798.5
2017-08-16T00:04:17.094Z,798.49
2017-08-16T00:04:21.441Z,798.48
2017-08-16T00:04:25.729Z,798.49
2017-08-16T00:04:29.847Z,798.47
2017-08-16T00:04:34.194Z,798.48
2017-08-16T00:04:38.647Z,798.45
2017-08-16T00:04:42.759Z,798.47
2017-08-16T00:04:47.110Z,798.45
2017-08-16T00:04:51.614Z,798.47
2017-08-16T00:04:56.088Z,798.43
2017-08-16T00:05:00.431Z,798.44
2017-08-16T00:05:05.095Z,798.39
2017-08-16T00:05:09.596Z,798.36
2017-08-16T00:05:14.061Z,798.43
2017-08-16T00:05:18.279Z,798.44
2017-08-16T00:05:22.630Z,798.39
2017-08-16T00:05:27.090Z,798.38
2017-08-16T00:05:31.554Z,798.37
2017-08-16T00:05:35.897Z,798.43
2017-08-16T00:05:40.264Z,798.43
2017-08-16T00:05:44.383Z,798.41
2017-08-16T00:05:48.840Z,798.42
2017-08-16T00:05:53.311Z,798.39
2017-08-16T00:05:57.668Z,798.39
2017-08-16T00:06:02.022Z,798.39
2017-08-16T00:06:06.365Z,798.38
2017-08-16T00:06:10.831Z,798.41
2017-08-16T00:06:15.082Z,798.35
2017-08-16T00:06:19.428Z,798.4
2017-08-16T00:06:23.661Z,798.4
2017-08-16T00:06:28.120Z,798.39
2017-08-16T00:06:32.599Z,798.35
2017-08-16T00:06:37.076Z,798.36
2017-08-16T00:06:41.423Z,798.35
2017-08-16T00:06:45.886Z,798.39
2017-08-16T00:06:50.361Z,798.37
2017-08-16T00:06:54.839Z,798.31
2017-08-16T00:06:59.307Z,798.3
2017-08-16T00:07:03.913Z,798.33
2017-08-16T00:07:08.389Z,798.37
2017-08-16T00:07:12.843Z,798.37
2017-08-16T00:07:17.191Z,798.34
2017-08-16T00:07:21.666Z,798.32
2017-08-16T00:07:26.032Z,798.25
2017-08-16T00:07:30.167Z,798.31
2017-08-16T00:07:34.638Z,798.27
2017-08-16T00:07:38.985Z,798.28
2017-08-16T00:07:43.339Z,798.26
2017-08-16T00:07:47.802Z,798.24
2017-08-16T00:07:52.282Z,798.24
2017-08-16T00:07:56.633Z,798.27
2017-08-16T00:08:00.971Z,798.25
2017-08-16T00:08:05.195Z,798.22
2017-08-16T00:08:09.544Z,798.23
2017-08-16T00:08:13.653Z,798.22
2017-08-16T00:08:17.884Z,798.21
2017-08-16T00:08:22.392Z,798.2
2017-08-16T00:08:26.623Z,798.19
2017-08-16T00:08:30.719Z,798.2
2017-08-16T00:08:35.054Z,798.19
2017-08-16T00:08:39.286Z,798.12
2017-08-16T00:08:43.750Z,798.17
2017-08-16T00:08:48.114Z,798.18
2017-08-16T00:08:52.587Z,798.17
2017-08-16T00:08:56.701Z,798.14
2017-08-16T00:09:01.167Z,798.14
2017-08-16T00:09:05.941Z,798.11
2017-08-16T00:09:10.385Z,798.1
2017-08-16T00:09:14.840Z,798.13
2017-08-16T00:09:19.201Z,798.09
2017-08-16T00:09:23.826Z,798.08
2017-08-16T00:09:28.304Z,798.06
2017-08-16T00:09:32.781Z,798.05
2017-08-16T00:09:37.266Z,798.04
2017-08-16T00:09:41.727Z,798.06
2017-08-16T00:09:45.963Z,798.06
2017-08-16T00:09:50.417Z,798.1
2017-08-16T00:09:54.880Z,798.08
2017-08-16T00:09:59.229Z,798.03
2017-08-16T00:10:03.878Z,798.02
2017-08-16T00:10:08.224Z,797.96
2017-08-16T00:10:12.438Z,797.98
2017-08-16T00:10:16.436Z,798
2017-08-16T00:10:20.672Z,797.97
2017-08-16T00:10:24.904Z,797.96
2017-08-16T00:10:29.247Z,797.98
2017-08-16T00:10:33.604Z,797.96
2017-08-16T00:10:38.100Z,797.96
2017-08-16T00:10:42.561Z,797.93
2017-08-16T00:10:46.785Z,797.94
2017-08-16T00:10:51.019Z,797.97
2017-08-16T00:10:55.496Z,797.94
2017-08-16T00:10:59.728Z,797.92
2017-08-16T00:11:04.198Z,797.93
2017-08-16T00:11:08.424Z,797.9
2017-08-16T00:11:12.805Z,797.87
2017-08-16T00:11:17.161Z,797.87
2017-08-16T00:11:21.609Z,797.88
2017-08-16T00:11:25.965Z,797.88
2017-08-16T00:11:30.326Z,797.88
2017-08-16T00:11:34.573Z,797.86
2017-08-16T00:11:38.932Z,797.83
2017-08-16T00:11:43.166Z,797.83
2017-08-16T00:11:47.640Z,797.79
2017-08-16T00:11:51.983Z,797.81
2017-08-16T00:11:56.438Z,797.78
2017-08-16T00:12:00.768Z,797.79
2017-08-16T00:12:05.251Z,797.79
2017-08-16T00:12:09.616Z,797.79
2017-08-16T00:12:13.958Z,797.8
2017-08-16T00:12:18.302Z,797.78
2017-08-16T00:12:22.760Z,797.79
2017-08-16T00:12:27.119Z,797.77
2017-08-16T00:12:31.590Z,797.73
2017-08-16T00:12:36.058Z,797.72
2017-08-16T00:12:40.389Z,797.72
2017-08-16T00:12:44.857Z,797.73
2017-08-16T00:12:49.324Z,797.69
2017-08-16T00:12:53.564Z,797.68
2017-08-16T00:12:57.797Z,797.69
2017-08-16T00:13:02.277Z,797.72
2017-08-16T00:13:06.504Z,797.69
2017-08-16T00:13:10.965Z,797.68
2017-08-16T00:13:15.307Z,797.67
2017-08-16T00:13:19.768Z,797.66
2017-08-16T00:13:24.102Z,797.65
2017-08-16T00:13:28.455Z,797.63
2017-08-16T00:13:32.915Z,797.63
2017-08-16T00:13:37.278Z,797.61
2017-08-16T00:13:41.608Z,797.66
2017-08-16T00:13:46.092Z,797.65
2017-08-16T00:13:50.560Z,797.62
2017-08-16T00:13:54.920Z,797.63
2017-08-16T00:13:59.402Z,797.59
2017-08-16T00:14:03.968Z,797.63
2017-08-16T00:14:08.326Z,797.6
2017-08-16T00:14:12.688Z,797.59
2017-08-16T00:14:16.939Z,797.59
2017-08-16T00:14:21.163Z,797.58
2017-08-16T00:14:25.398Z,797.59
2017-08-16T00:14:29.651Z,797.63
2017-08-16T00:14:34.105Z,797.65
2017-08-16T00:14:38.451Z,797.66
2017-08-16T00:14:42.693Z,797.63
2017-08-16T00:14:47.027Z,797.66
2017-08-16T00:14:51.381Z,797.63
2017-08-16T00:14:55.841Z,797.63
2017-08-16T00:15:00.071Z,797.63
2017-08-16T00:15:04.552Z,797.64
2017-08-16T00:15:08.904Z,797.63
2017-08-16T00:15:13.236Z,797.65
2017-08-16T00:15:17.452Z,797.65
2017-08-16T00:15:21.791Z,797.65
2017-08-16T00:15:26.263Z,797.65
2017-08-16T00:15:30.377Z,797.61
2017-08-16T00:15:34.717Z,797.64
2017-08-16T00:15:39.186Z,797.63
2017-08-16T00:15:43.521Z,797.65
2017-08-16T00:15:47.997Z,797.6
2017-08-16T00:15:52.458Z,797.65
2017-08-16T00:15:56.791Z,797.62
2017-08-16T00:16:01.146Z,797.67
2017-08-16T00:16:05.607Z,797.66
2017-08-16T00:16:09.949Z,797.63
2017-08-16T00:16:14.308Z,797.7
2017-08-16T00:16:18.552Z,797.68
2017-08-16T00:16:22.696Z,797.68
2017-08-16T00:16:27.048Z,797.67
2017-08-16T00:16:31.145Z,797.7
2017-08-16T00:16:35.382Z,797.68
2017-08-16T00:16:39.718Z,797.7
2017-08-16T00:16:44.171Z,797.67
2017-08-16T00:16:48.634Z,797.69
2017-08-16T00:16:53.108Z,797.69
2017-08-16T00:16:57.369Z,797.71
2017-08-16T00:17:01.799Z,797.64
2017-08-16T00:17:06.150Z,797.67
2017-08-16T00:17:10.385Z,797.67
2017-08-16T00:17:14.731Z,797.71
2017-08-16T00:17:19.080Z,797.7
2017-08-16T00:17:23.321Z,797.7
2017-08-16T00:17:27.783Z,797.71
2017-08-16T00:17:32.039Z,797.73
2017-08-16T00:17:36.379Z,797.73
2017-08-16T00:17:40.716Z,797.7
2017-08-16T00:17:45.056Z,797.76
2017-08-16T00:17:49.528Z,797.77
2017-08-16T00:17:53.890Z,797.75
2017-08-16T00:17:58.109Z,797.76
2017-08-16T00:18:02.591Z,797.77
2017-08-16T00:18:06.928Z,797.78
2017-08-16T00:18:11.035Z,797.77
2017-08-16T00:18:15.370Z,797.77
2017-08-16T00:18:19.827Z,797.73
2017-08-16T00:18:24.298Z,797.76
2017-08-16T00:18:28.631Z,797.76
2017-08-16T00:18:33.096Z,797.73
2017-08-16T00:18:37.562Z,797.81
2017-08-16T00:18:41.919Z,797.8
2017-08-16T00:18:46.386Z,797.82
2017-08-16T00:18:50.852Z,797.8
2017-08-16T00:18:55.336Z,797.79
2017-08-16T00:18:59.559Z,797.83
2017-08-16T00:19:04.020Z,797.8
2017-08-16T00:19:08.352Z,797.83
2017-08-16T00:19:12.822Z,797.84
2017-08-16T00:19:17.296Z,797.84
2017-08-16T00:19:21.778Z,797.81
2017-08-16T00:19:26.230Z,797.81
2017-08-16T00:19:30.576Z,797.8
2017-08-16T00:19:35.060Z,797.77
2017-08-16T00:19:39.532Z,797.77
2017-08-16T00:19:43.747Z,797.79
2017-08-16T00:19:48.211Z,797.79
2017-08-16T00:19:52.561Z,797.81
2017-08-16T00:19:56.654Z,797.81
2017-08-16T00:20:00.986Z,797.77
2017-08-16T00:20:05.472Z,797.77
2017-08-16T00:20:09.823Z,797.76
2017-08-16T00:20:14.086Z,797.78
2017-08-16T00:20:18.439Z,797.8
2017-08-16T00:20:22.902Z,797.83
2017-08-16T00:20:27.127Z,797.82
2017-08-16T00:20:31.505Z,797.78
2017-08-16T00:20:35.977Z,797.79
2017-08-16T00:20:40.321Z,797.78
2017-08-16T00:20:44.789Z,797.77
2017-08-16T00:20:48.909Z,797.8
2017-08-16T00:20:53.386Z,797.74
2017-08-16T00:20:57.846Z,797.79
2017-08-16T00:21:02.193Z,797.74
2017-08-16T00:21:06.655Z,797.74
2017-08-16T00:21:11.009Z,797.73
2017-08-16T00:21:15.362Z,797.68
2017-08-16T00:21:19.826Z,797.67
2017-08-16T00:21:24.301Z,797.71
2017-08-16T00:21:28.541Z,797.72
2017-08-16T00:21:32.773Z,797.69
2017-08-16T00:21:37.124Z,797.72
2017-08-16T00:21:41.364Z,797.72
2017-08-16T00:21:45.697Z,797.7
2017-08-16T00:21:49.918Z,797.71
2017-08-16T00:21:54.386Z,797.71
2017-08-16T00:21:58.502Z,797.69
2017-08-16T00:22:03.036Z,797.69
2017-08-16T00:22:07.376Z,797.66
2017-08-16T00:22:11.713Z,797.69
2017-08-16T00:22:15.952Z,797.68
2017-08-16T00:22:20.425Z,797.66
2017-08-16T00:22:24.757Z,797.67
2017-08-16T00:22:28.987Z,797.69
2017-08-16T00:22:33.445Z,797.7
2017-08-16T00:22:37.686Z,797.69
2017-08-16T00:22:42.032Z,797.69
2017-08-16T00:22:46.368Z,797.66
2017-08-16T00:22:50.833Z,797.71
2017-08-16T00:22:55.298Z,797.69
2017-08-16T00:22:59.764Z,797.71
2017-08-16T00:23:04.226Z,797.71
2017-08-16T00:23:08.702Z,797.66
2017-08-16T00:23:13.043Z,797.69
2017-08-16T00:23:17.392Z,797.73
2017-08-16T00:23:21.623Z,797.72
2017-08-16T00:23:25.978Z,797.75
2017-08-16T00:23:30.229Z,797.72
2017-08-16T00:23:34.699Z,797.68
2017-08-16T00:23:39.058Z,797.69
2017-08-16T00:23:43.408Z,797.7
2017-08-16T00:23:47.880Z,797.65
2017-08-16T00:23:52.352Z,797.67
2017-08-16T00:23:56.814Z,797.65
2017-08-16T00:24:01.274Z,797.62
2017-08-16T00:24:05.823Z,797.64
2017-08-16T00:24:10.288Z,797.64
2017-08-16T00:24:14.496Z,797.62
2017-08-16T00:24:18.723Z,797.64
2017-08-16T00:24:23.106Z,797.56
2017-08-16T00:24:27.470Z,797.58
2017-08-16T00:24:31.711Z,797.58
2017-08-16T00:24:36.177Z,797.59
2017-08-16T00:24:40.642Z,797.56
2017-08-16T00:24:45.119Z,797.56
2017-08-16T00:24:49.581Z,797.54
2017-08-16T00:24:54.045Z,797.53
2017-08-16T00:24:58.268Z,797.51
2017-08-16T00:25:02.559Z,797.5
2017-08-16T00:25:06.899Z,797.43
2017-08-16T00:25:11.254Z,797.47
2017-08-16T00:25:15.604Z,797.47
2017-08-16T00:25:19.858Z,797.43
2017-08-16T00:25:24.323Z,797.44
2017-08-16T00:25:28.422Z,797.42
2017-08-16T00:25:32.648Z,797.36
2017-08-16T00:25:37.122Z,797.38
2017-08-16T00:25:41.581Z,797.34
2017-08-16T00:25:45.920Z,797.27
2017-08-16T00:25:50.385Z,797.22
2017-08-16T00:25:54.857Z,797.25
2017-08-16T00:25:59.082Z,797.24
2017-08-16T00:26:03.724Z,797.21
2017-08-16T00:26:07.968Z,797.2
2017-08-16T00:26:12.331Z,797.17
2017-08-16T00:26:16.680Z,797.11
2017-08-16T00:26:20.902Z,797.14
2017-08-16T00:26:25.361Z,797.11
2017-08-16T00:26:29.840Z,797.08
2017-08-16T00:26:34.310Z,797.08
2017-08-16T00:26:38.659Z,797.04
2017-08-16T00:26:43.114Z,797.04
2017-08-16T00:26:47.580Z,796.99
2017-08-16T00:26:52.084Z,796.98
2017-08-16T00:26:56.545Z,796.96
2017-08-16T00:27:00.786Z,796.87
2017-08-16T00:27:05.228Z,796.93
2017-08-16T00:27:09.716Z,796.88
2017-08-16T00:27:14.061Z,796.83
2017-08-16T00:27:18.406Z,796.84
2017-08-16T00:27:22.729Z,796.8
2017-08-16T00:27:27.065Z,796.78
2017-08-16T00:27:31.421Z,796.75
2017-08-16T00:27:35.783Z,796.73
2017-08-16T00:27:39.775Z,796.74
2017-08-16T00:27:44.002Z,796.7
2017-08-16T00:27:48.358Z,796.7
2017-08-16T00:27:52.702Z,796.65
2017-08-16T00:27:57.167Z,796.65
2017-08-16T00:28:01.516Z,796.65
2017-08-16T00:28:06.140Z,796.63
2017-08-16T00:28:10.493Z,796.61
2017-08-16T00:28:14.728Z,796.58
2017-08-16T00:28:18.972Z,796.52
2017-08-16T00:28:23.339Z,796.52
2017-08-16T00:28:27.720Z,796.54
2017-08-16T00:28:32.194Z,796.52
2017-08-16T00:28:36.565Z,796.41
2017-08-16T00:28:40.810Z,796.45
2017-08-16T00:28:45.047Z,796.39
2017-08-16T00:28:49.277Z,796.43
2017-08-16T00:28:53.641Z,796.37
2017-08-16T00:28:57.859Z,796.37
2017-08-16T00:29:02.565Z,796.37
2017-08-16T00:29:07.039Z,796.31
2017-08-16T00:29:11.399Z,796.3
2017-08-16T00:29:15.871Z,796.27
2017-08-16T00:29:20.315Z,796.29
2017-08-16T00:29:24.654Z,796.22
2017-08-16T00:29:29.007Z,796.25
2017-08-16T00:29:33.121Z,796.19
2017-08-16T00:29:37.479Z,796.2
2017-08-16T00:29:41.699Z,796.17
2017-08-16T00:29:46.156Z,796.15
2017-08-16T00:29:50.635Z,796.16
2017-08-16T00:29:55.113Z,796.15
2017-08-16T00:29:59.333Z,796.11
2017-08-16T00:30:03.858Z,796.05
2017-08-16T00:30:08.201Z,796.09
2017-08-16T00:30:12.682Z,796.06
2017-08-16T00:30:17.023Z,796.01
2017-08-16T00:30:21.491Z,796.03
2017-08-16T00:30:25.953Z,795.92
2017-08-16T00:30:30.189Z,795.9
2017-08-16T00:30:34.308Z,795.93
2017-08-16T00:30:38.654Z,795.88
2017-08-16T00:30:43.124Z,795.93
2017-08-16T00:30:47.591Z,795.85
2017-08-16T00:30:52.052Z,795.9
2017-08-16T00:30:56.394Z,795.86
2017-08-16T00:31:00.751Z,795.8
2017-08-16T00:31:05.113Z,795.82
2017-08-16T00:31:09.333Z,795.79
2017-08-16T00:31:13.802Z,795.77
2017-08-16T00:31:18.277Z,795.75
2017-08-16T00:31:22.749Z,795.72
2017-08-16T00:31:26.989Z,795.69
2017-08-16T00:31:31.338Z,795.7
2017-08-16T00:31:35.550Z,795.7
2017-08-16T00:31:39.913Z,795.7
2017-08-16T00:31:44.278Z,795.72
2017-08-16T00:31:48.616Z,795.66
2017-08-16T00:31:52.956Z,795.65
2017-08-16T00:31:57.322Z,795.61
2017-08-16T00:32:01.652Z,795.63
2017-08-16T00:32:06.199Z,795.58
2017-08-16T00:32:10.552Z,795.56
2017-08-16T00:32:14.800Z,795.54
2017-08-16T00:32:19.280Z,795.54
2017-08-16T00:32:23.768Z,795.51
2017-08-16T00:32:28.016Z,795.46
2017-08-16T00:32:32.376Z,795.52
2017-08-16T00:32:36.731Z,795.5
2017-08-16T00:32:41.184Z,795.47
2017-08-16T00:32:45.533Z,795.46
2017-08-16T00:32:49.888Z,795.43
2017-08-16T00:32:54.350Z,795.43
2017-08-16T00:32:58.825Z,795.44
2017-08-16T00:33:03.295Z,795.39
2017-08-16T00:33:07.761Z,795.4
2017-08-16T00:33:11.986Z,795.38
2017-08-16T00:33:16.336Z,795.39
2017-08-16T00:33:20.690Z,795.37
2017-08-16T00:33:25.166Z,795.38
2017-08-16T00:33:29.305Z,795.35
2017-08-16T00:33:33.540Z,795.35
2017-08-16T00:33:37.890Z,795.33
2017-08-16T00:33:42.366Z,795.32
2017-08-16T00:33:46.738Z,795.28
2017-08-16T00:33:51.196Z,795.28
2017-08-16T00:33:55.672Z,795.27
2017-08-16T00:34:00.025Z,795.23
2017-08-16T00:34:04.760Z,795.24
2017-08-16T00:34:09.094Z,795.23
2017-08-16T00:34:13.434Z,795.21
2017-08-16T00:34:17.679Z,795.21
2017-08-16T00:34:22.142Z,795.19
2017-08-16T00:34:26.616Z,795.15
2017-08-16T00:34:30.835Z,795.16
2017-08-16T00:34:35.065Z,795.14
2017-08-16T00:34:39.428Z,795.17
2017-08-16T00:34:43.888Z,795.15
2017-08-16T00:34:48.127Z,795.17
2017-08-16T00:34:52.481Z,795.12
2017-08-16T00:34:56.716Z,795.11
2017-08-16T00:35:01.054Z,795.12
2017-08-16T00:35:05.638Z,795.1
2017-08-16T00:35:10.125Z,795.13
2017-08-16T00:35:14.585Z,795.08
2017-08-16T00:35:18.566Z,795.09
2017-08-16T00:35:22.795Z,795.09
2017-08-16T00:35:27.028Z,795.08
2017-08-16T00:35:31.258Z,795.09
2017-08-16T00:35:35.475Z,795.09
2017-08-16T00:35:39.811Z,795.06
2017-08-16T00:35:44.148Z,795.07
2017-08-16T00:35:48.491Z,795.06
2017-08-16T00:35:52.986Z,795.07
2017-08-16T00:35:57.332Z,795.05
2017-08-16T00:36:01.797Z,795.02
2017-08-16T00:36:06.326Z,794.97
2017-08-16T00:36:10.698Z,795.01
2017-08-16T00:36:15.042Z,795
2017-08-16T00:36:19.410Z,795
2017-08-16T00:36:23.873Z,794.99
2017-08-16T00:36:28.224Z,795
2017-08-16T00:36:32.567Z,794.99
2017-08-16T00:36:37.041Z,794.96
2017-08-16T00:36:41.253Z,794.96
2017-08-16T00:36:45.735Z,794.93
2017-08-16T00:36:50.206Z,794.91
2017-08-16T00:36:54.666Z,794.9
2017-08-16T00:36:59.008Z,794.89
2017-08-16T00:37:03.032Z,794.87
2017-08-16T00:37:07.386Z,794.89
2017-08-16T00:37:11.851Z,794.88
2017-08-16T00:37:16.197Z,794.87
2017-08-16T00:37:20.646Z,794.8
2017-08-16T00:37:25.123Z,794.83
2017-08-16T00:37:29.586Z,794.82
2017-08-16T00:37:34.062Z,794.78
2017-08-16T00:37:38.426Z,794.81
2017-08-16T00:37:42.893Z,794.78
2017-08-16T00:37:47.360Z,794.78
2017-08-16T00:37:51.830Z,794.84
2017-08-16T00:37:56.079Z,794.82
2017-08-16T00:38:00.226Z,794.81
2017-08-16T00:38:04.758Z,794.79
2017-08-16T00:38:09.225Z,794.84
2017-08-16T00:38:13.468Z,794.82
2017-08-16T00:38:17.713Z,794.79
2017-08-16T00:38:22.181Z,794.81
2017-08-16T00:38:26.646Z,794.79
2017-08-16T00:38:31.135Z,794.76
2017-08-16T00:38:35.365Z,794.79
2017-08-16T00:38:39.719Z,794.8
2017-08-16T00:38:44.173Z,794.8
2017-08-16T00:38:48.410Z,794.81
2017-08-16T00:38:52.881Z,794.82
2017-08-16T00:38:57.212Z,794.79
2017-08-16T00:39:01.553Z,794.79
2017-08-16T00:39:05.890Z,794.82
2017-08-16T00:39:10.354Z,794.75
2017-08-16T00:39:14.706Z,794.76
2017-08-16T00:39:18.935Z,794.78
2017-08-16T00:39:23.293Z,794.78
2017-08-16T00:39:27.669Z,794.74
2017-08-16T00:39:32.386Z,794.75
2017-08-16T00:39:36.625Z,794.77
2017-08-16T00:39:40.971Z,794.74
2017-08-16T00:39:45.099Z,794.78
2017-08-16T00:39:49.571Z,794.79
2017-08-16T00:39:53.928Z,794.81
2017-08-16T00:39:58.285Z,794.77
2017-08-16T00:40:02.755Z,794.73
2017-08-16T00:40:07.109Z,794.8
2017-08-16T00:40:11.338Z,794.77
2017-08-16T00:40:15.451Z,794.79
2017-08-16T00:40:19.799Z,794.76
2017-08-16T00:40:24.151Z,794.78
2017-08-16T00:40:28.500Z,794.79
2017-08-16T00:40:32.969Z,794.78
2017-08-16T00:40:37.213Z,794.77
2017-08-16T00:40:41.576Z,794.78
2017-08-16T00:40:45.920Z,794.76
2017-08-16T00:40:50.394Z,794.8
2017-08-16T00:40:54.894Z,794.8
2017-08-16T00:40:59.122Z,794.79
2017-08-16T00:41:03.589Z,794.79
2017-08-16T00:41:08.059Z,794.79
2017-08-16T00:41:12.521Z,794.78
2017-08-16T00:41:16.748Z,794.79
2017-08-16T00:41:21.220Z,794.8
2017-08-16T00:41:25.686Z,794.75
2017-08-16T00:41:29.938Z,794.79
2017-08-16T00:41:34.292Z,794.81
2017-08-16T00:41:38.524Z,794.8
2017-08-16T00:41:42.876Z,794.77
2017-08-16T00:41:47.221Z,794.78
2017-08-16T00:41:51.574Z,794.79
2017-08-16T00:41:56.025Z,794.8
2017-08-16T00:42:00.250Z,794.77
2017-08-16T00:42:04.726Z,794.81
2017-08-16T00:42:08.969Z,794.83
2017-08-16T00:42:13.313Z,794.82
2017-08-16T00:42:17.646Z,794.81
2017-08-16T00:42:22.108Z,794.83
2017-08-16T00:42:26.590Z,794.81
2017-08-16T00:42:30.812Z,794.79
2017-08-16T00:42:35.160Z,794.78
2017-08-16T00:42:39.621Z,794.84
2017-08-16T00:42:44.100Z,794.8
2017-08-16T00:42:48.558Z,794.75
2017-08-16T00:42:53.030Z,794.81
2017-08-16T00:42:57.498Z,794.81
2017-08-16T00:43:01.847Z,794.78
2017-08-16T00:43:06.322Z,794.84
2017-08-16T00:43:10.772Z,794.82
2017-08-16T00:43:15.115Z,794.77
2017-08-16T00:43:19.459Z,794.84
2017-08-16T00:43:23.570Z,794.82
2017-08-16T00:43:27.796Z,794.81
2017-08-16T00:43:32.006Z,794.81
2017-08-16T00:43:36.349Z,794.82
2017-08-16T00:43:40.694Z,794.82
2017-08-16T00:43:45.158Z,794.81
2017-08-16T00:43:49.619Z,794.8
2017-08-16T00:43:54.086Z,794.82
2017-08-16T00:43:58.335Z,794.8
2017-08-16T00:44:02.806Z,794.83
2017-08-16T00:44:07.170Z,794.83
2017-08-16T00:44:11.641Z,794.82
2017-08-16T00:44:16.000Z,794.84
2017-08-16T00:44:20.481Z,794.83
2017-08-16T00:44:24.958Z,794.79
2017-08-16T00:44:29.182Z,794.86
2017-08-16T00:44:33.646Z,794.85
2017-08-16T00:44:37.877Z,794.82
2017-08-16T00:44:42.235Z,794.81
2017-08-16T00:44:46.587Z,794.84
2017-08-16T00:44:50.947Z,794.82
2017-08-16T00:44:55.281Z,794.84
2017-08-16T00:44:59.505Z,794.83
2017-08-16T00:45:03.849Z,794.83
2017-08-16T00:45:08.326Z,794.81
2017-08-16T00:45:12.559Z,794.83
2017-08-16T00:45:17.022Z,794.85
2017-08-16T00:45:21.371Z,794.83
2017-08-16T00:45:25.725Z,794.85
2017-08-16T00:45:29.728Z,794.83
2017-08-16T00:45:34.191Z,794.83
2017-08-16T00:45:38.423Z,794.87
2017-08-16T00:45:42.877Z,794.85
2017-08-16T00:45:47.342Z,794.84
2017-08-16T00:45:51.808Z,794.79
2017-08-16T00:45:56.140Z,794.85
2017-08-16T00:46:00.621Z,794.84
2017-08-16T00:46:05.094Z,794.81
2017-08-16T00:46:09.317Z,794.85
2017-08-16T00:46:13.661Z,794.85
2017-08-16T00:46:18.113Z,794.82
2017-08-16T00:46:22.583Z,794.83
2017-08-16T00:46:27.043Z,794.81
2017-08-16T00:46:31.511Z,794.82
2017-08-16T00:46:35.865Z,794.79
2017-08-16T00:46:40.214Z,794.83
2017-08-16T00:46:44.574Z,794.87
2017-08-16T00:46:49.053Z,794.85
2017-08-16T00:46:53.508Z,794.81
2017-08-16T00:46:57.727Z,794.84
2017-08-16T00:47:02.550Z,794.82
2017-08-16T00:47:06.652Z,794.84
2017-08-16T00:47:11.124Z,794.86
2017-08-16T00:47:15.596Z,794.82
2017-08-16T00:47:19.964Z,794.81
2017-08-16T00:47:24.310Z,794.83
2017-08-16T00:47:28.649Z,794.81
2017-08-16T00:47:32.882Z,794.85
2017-08-16T00:47:37.354Z,794.85
2017-08-16T00:47:41.696Z,794.83
2017-08-16T00:47:46.174Z,794.8
2017-08-16T00:47:50.534Z,794.82
2017-08-16T00:47:54.770Z,794.85
2017-08-16T00:47:58.878Z,794.79
2017-08-16T00:48:03.001Z,794.82
2017-08-16T00:48:07.456Z,794.81
2017-08-16T00:48:11.820Z,794.78
2017-08-16T00:48:16.063Z,794.84
2017-08-16T00:48:20.396Z,794.84
2017-08-16T00:48:24.736Z,794.8
2017-08-16T00:48:28.970Z,794.85
2017-08-16T00:48:33.341Z,794.85
2017-08-16T00:48:37.795Z,794.82
2017-08-16T00:48:42.241Z,794.87
2017-08-16T00:48:46.707Z,794.85
2017-08-16T00:48:51.189Z,794.84
2017-08-16T00:48:55.648Z,794.8
2017-08-16T00:48:59.643Z,794.79
2017-08-16T00:49:04.158Z,794.84
2017-08-16T00:49:08.521Z,794.84
2017-08-16T00:49:12.979Z,794.87
2017-08-16T00:49:17.342Z,794.85
2017-08-16T00:49:21.812Z,794.88
2017-08-16T00:49:26.029Z,794.89
2017-08-16T00:49:30.490Z,794.86
2017-08-16T00:49:34.960Z,794.89
2017-08-16T00:49:39.301Z,794.87
2017-08-16T00:49:43.756Z,794.84
2017-08-16T00:49:48.229Z,794.85
2017-08-16T00:49:52.683Z,794.86
2017-08-16T00:49:57.034Z,794.85
2017-08-16T00:50:01.374Z,794.81
2017-08-16T00:50:05.965Z,794.84
2017-08-16T00:50:10.326Z,794.84
2017-08-16T00:50:14.795Z,794.85
2017-08-16T00:50:19.135Z,794.84
2017-08-16T00:50:23.592Z,794.81
2017-08-16T00:50:27.943Z,794.82
2017-08-16T00:50:32.181Z,794.81
2017-08-16T00:50:36.519Z,794.83
2017-08-16T00:50:40.970Z,794.81
2017-08-16T00:50:45.309Z,794.88
2017-08-16T00:50:49.661Z,794.85
2017-08-16T00:50:54.030Z,794.85
2017-08-16T00:50:58.249Z,794.84
2017-08-16T00:51:02.717Z,794.85
2017-08-16T00:51:07.195Z,794.86
2017-08-16T00:51:11.684Z,794.86
2017-08-16T00:51:16.138Z,794.86
2017-08-16T00:51:20.599Z,794.84
2017-08-16T00:51:25.070Z,794.86
2017-08-16T00:51:29.172Z,794.85
2017-08-16T00:51:33.408Z,794.85
2017-08-16T00:51:37.739Z,794.85
2017-08-16T00:51:41.977Z,794.88
2017-08-16T00:51:46.445Z,794.9
2017-08-16T00:51:50.809Z,794.82
2017-08-16T00:51:55.161Z,794.84
2017-08-16T00:51:59.391Z,794.87
2017-08-16T00:52:03.846Z,794.87
2017-08-16T00:52:08.196Z,794.88
2017-08-16T00:52:12.679Z,794.9
2017-08-16T00:52:16.919Z,794.88
2017-08-16T00:52:21.400Z,794.84
2017-08-16T00:52:25.750Z,794.83
2017-08-16T00:52:29.985Z,794.82
2017-08-16T00:52:34.331Z,794.85
2017-08-16T00:52:38.557Z,794.86
2017-08-16T00:52:42.904Z,794.86
2017-08-16T00:52:47.257Z,794.86
2017-08-16T00:52:51.489Z,794.85
2017-08-16T00:52:55.947Z,794.84
2017-08-16T00:53:00.183Z,794.85
2017-08-16T00:53:04.951Z,794.84
2017-08-16T00:53:09.413Z,794.86
2017-08-16T00:53:13.647Z,794.86
2017-08-16T00:53:17.786Z,794.87
2017-08-16T00:53:22.123Z,794.85
2017-08-16T00:53:26.463Z,794.85
2017-08-16T00:53:30.694Z,794.87
2017-08-16T00:53:35.044Z,794.87
2017-08-16T00:53:39.408Z,794.88
2017-08-16T00:53:43.613Z,794.88
2017-08-16T00:53:47.961Z,794.87
2017-08-16T00:53:52.435Z,794.87
2017-08-16T00:53:56.687Z,794.84
2017-08-16T00:54:00.918Z,794.89
2017-08-16T00:54:05.210Z,794.87
2017-08-16T00:54:09.436Z,794.83
2017-08-16T00:54:13.898Z,794.91
2017-08-16T00:54:18.233Z,794.87
2017-08-16T00:54:22.702Z,794.85
2017-08-16T00:54:27.055Z,794.88
2017-08-16T00:54:31.289Z,794.87
2017-08-16T00:54:35.761Z,794.89
2017-08-16T00:54:40.114Z,794.9